sensor_id;sensor_type;location;lat;lon;timestamp;temperature;humidity
33207;DHT22;19565;46.602;11.534;2023-05-14T00:01:45;12.90;99.90
33207;DHT22;19565;46.602;11.534;2023-05-14T00:04:13;12.90;99.90
33207;DHT22;19565;46.602;11.534;2023-05-14T00:06:42;13.00;99.90
33207;DHT22;19565;46.602;11.534;2023-05-14T00:09:10;13.00;99.90
33207;DHT22;19565;46.602;11.534;2023-05-14T00:11:38;13.00;99.90
33207;DHT22;19565;46.602;11.534;2023-05-14T00:14:09;13.00;99.90
33207;DHT22;19565;46.602;11.534;2023-05-14T00:16:38;13.00;99.90
33207;DHT22;19565;46.602;11.534;2023-05-14T00:19:06;13.00;99.90
33207;DHT22;19565;46.602;11.534;2023-05-14T00:21:34;13.00;99.90
33207;DHT22;19565;46.602;11.534;2023-05-14T00:24:02;12.90;99.90
33207;DHT22;19565;46.602;11.534;2023-05-14T00:26:30;12.90;99.90
33207;DHT22;19565;46.602;11.534;2023-05-14T00:28:58;12.90;99.90
33207;DHT22;19565;46.602;11.534;2023-05-14T00:31:27;12.90;99.90
33207;DHT22;19565;46.602;11.534;2023-05-14T00:33:56;12.90;99.90
33207;DHT22;19565;46.602;11.534;2023-05-14T00:36:24;12.90;99.90
33207;DHT22;19565;46.602;11.534;2023-05-14T00:38:52;12.90;99.90
33207;DHT22;19565;46.602;11.534;2023-05-14T00:41:21;12.90;99.90
33207;DHT22;19565;46.602;11.534;2023-05-14T00:43:49;12.90;99.90
33207;DHT22;19565;46.602;11.534;2023-05-14T00:46:17;12.80;99.90
33207;DHT22;19565;46.602;11.534;2023-05-14T00:48:46;12.80;99.90
33207;DHT22;19565;46.602;11.534;2023-05-14T00:51:15;12.80;99.90
33207;DHT22;19565;46.602;11.534;2023-05-14T00:53:45;12.80;99.90
33207;DHT22;19565;46.602;11.534;2023-05-14T00:56:13;12.80;99.90
33207;DHT22;19565;46.602;11.534;2023-05-14T00:58:42;12.80;99.90
33207;DHT22;19565;46.602;11.534;2023-05-14T01:01:10;12.80;99.90
33207;DHT22;19565;46.602;11.534;2023-05-14T01:03:41;12.80;99.90
33207;DHT22;19565;46.602;11.534;2023-05-14T01:06:16;12.80;99.90
33207;DHT22;19565;46.602;11.534;2023-05-14T01:08:52;12.70;99.90
33207;DHT22;19565;46.602;11.534;2023-05-14T01:11:28;12.70;99.90
33207;DHT22;19565;46.602;11.534;2023-05-14T01:14:01;12.70;99.90
33207;DHT22;19565;46.602;11.534;2023-05-14T01:16:32;12.70;99.90
33207;DHT22;19565;46.602;11.534;2023-05-14T01:19:01;12.70;99.90
33207;DHT22;19565;46.602;11.534;2023-05-14T01:21:42;12.70;99.90
33207;DHT22;19565;46.602;11.534;2023-05-14T01:24:10;12.80;99.90
33207;DHT22;19565;46.602;11.534;2023-05-14T01:26:38;12.80;99.90
33207;DHT22;19565;46.602;11.534;2023-05-14T01:29:11;12.80;99.90
33207;DHT22;19565;46.602;11.534;2023-05-14T01:31:43;12.80;99.90
33207;DHT22;19565;46.602;11.534;2023-05-14T01:34:13;12.80;99.90
33207;DHT22;19565;46.602;11.534;2023-05-14T01:36:44;12.80;99.90
33207;DHT22;19565;46.602;11.534;2023-05-14T01:39:13;12.80;99.90
33207;DHT22;19565;46.602;11.534;2023-05-14T01:41:42;12.80;99.90
33207;DHT22;19565;46.602;11.534;2023-05-14T01:44:11;12.80;99.90
33207;DHT22;19565;46.602;11.534;2023-05-14T01:46:39;12.80;99.90
33207;DHT22;19565;46.602;11.534;2023-05-14T01:49:07;12.80;99.90
33207;DHT22;19565;46.602;11.534;2023-05-14T01:51:35;12.70;99.90
33207;DHT22;19565;46.602;11.534;2023-05-14T01:54:04;12.70;99.90
33207;DHT22;19565;46.602;11.534;2023-05-14T01:56:35;12.70;99.90
33207;DHT22;19565;46.602;11.534;2023-05-14T01:59:02;12.70;99.90
33207;DHT22;19565;46.602;11.534;2023-05-14T02:01:31;12.70;99.90
33207;DHT22;19565;46.602;11.534;2023-05-14T02:03:59;12.70;99.90
33207;DHT22;19565;46.602;11.534;2023-05-14T02:06:27;12.70;99.90
33207;DHT22;19565;46.602;11.534;2023-05-14T02:08:55;12.60;99.90
33207;DHT22;19565;46.602;11.534;2023-05-14T02:11:25;12.70;99.90
33207;DHT22;19565;46.602;11.534;2023-05-14T02:13:53;12.70;99.90
33207;DHT22;19565;46.602;11.534;2023-05-14T02:16:21;12.70;99.90
33207;DHT22;19565;46.602;11.534;2023-05-14T02:18:49;12.70;99.90
33207;DHT22;19565;46.602;11.534;2023-05-14T02:21:17;12.60;99.90
33207;DHT22;19565;46.602;11.534;2023-05-14T02:23:45;12.60;99.90
33207;DHT22;19565;46.602;11.534;2023-05-14T02:26:15;12.60;99.90
33207;DHT22;19565;46.602;11.534;2023-05-14T02:28:44;12.50;99.90
33207;DHT22;19565;46.602;11.534;2023-05-14T02:31:12;12.50;99.90
33207;DHT22;19565;46.602;11.534;2023-05-14T02:33:40;12.50;99.90
33207;DHT22;19565;46.602;11.534;2023-05-14T02:36:08;12.50;99.90
33207;DHT22;19565;46.602;11.534;2023-05-14T02:38:36;12.50;99.90
33207;DHT22;19565;46.602;11.534;2023-05-14T02:41:04;12.50;99.90
33207;DHT22;19565;46.602;11.534;2023-05-14T02:43:32;12.50;99.90
33207;DHT22;19565;46.602;11.534;2023-05-14T02:46:02;12.50;99.90
33207;DHT22;19565;46.602;11.534;2023-05-14T02:48:30;12.40;99.90
33207;DHT22;19565;46.602;11.534;2023-05-14T02:50:58;12.40;99.90
33207;DHT22;19565;46.602;11.534;2023-05-14T02:53:26;12.30;99.90
33207;DHT22;19565;46.602;11.534;2023-05-14T02:55:54;12.30;99.90
33207;DHT22;19565;46.602;11.534;2023-05-14T02:58:22;12.30;99.90
33207;DHT22;19565;46.602;11.534;2023-05-14T03:00:53;12.20;99.90
33207;DHT22;19565;46.602;11.534;2023-05-14T03:03:23;12.10;99.90
33207;DHT22;19565;46.602;11.534;2023-05-14T03:05:51;12.20;99.90
33207;DHT22;19565;46.602;11.534;2023-05-14T03:08:19;12.20;99.90
33207;DHT22;19565;46.602;11.534;2023-05-14T03:10:48;12.30;99.90
33207;DHT22;19565;46.602;11.534;2023-05-14T03:13:17;12.30;99.90
33207;DHT22;19565;46.602;11.534;2023-05-14T03:15:46;12.30;99.90
33207;DHT22;19565;46.602;11.534;2023-05-14T03:18:14;12.20;99.90
33207;DHT22;19565;46.602;11.534;2023-05-14T03:20:43;12.20;99.90
33207;DHT22;19565;46.602;11.534;2023-05-14T03:23:12;12.20;99.90
33207;DHT22;19565;46.602;11.534;2023-05-14T03:25:40;12.20;99.90
33207;DHT22;19565;46.602;11.534;2023-05-14T03:28:08;12.20;99.90
33207;DHT22;19565;46.602;11.534;2023-05-14T03:30:36;12.20;99.90
33207;DHT22;19565;46.602;11.534;2023-05-14T03:33:04;12.20;99.90
33207;DHT22;19565;46.602;11.534;2023-05-14T03:35:33;12.20;99.90
33207;DHT22;19565;46.602;11.534;2023-05-14T03:38:02;12.20;99.90
33207;DHT22;19565;46.602;11.534;2023-05-14T03:40:30;12.20;99.90
33207;DHT22;19565;46.602;11.534;2023-05-14T03:42:58;12.10;99.90
33207;DHT22;19565;46.602;11.534;2023-05-14T03:45:26;12.10;99.90
33207;DHT22;19565;46.602;11.534;2023-05-14T03:47:56;12.10;99.90
33207;DHT22;19565;46.602;11.534;2023-05-14T03:50:24;12.20;99.90
33207;DHT22;19565;46.602;11.534;2023-05-14T03:52:52;12.10;99.90
33207;DHT22;19565;46.602;11.534;2023-05-14T03:55:22;12.10;99.90
33207;DHT22;19565;46.602;11.534;2023-05-14T03:57:50;12.10;99.90
33207;DHT22;19565;46.602;11.534;2023-05-14T04:00:18;12.10;99.90
33207;DHT22;19565;46.602;11.534;2023-05-14T04:02:47;12.10;99.90
33207;DHT22;19565;46.602;11.534;2023-05-14T04:05:15;12.10;99.90
33207;DHT22;19565;46.602;11.534;2023-05-14T04:07:43;12.10;99.90
33207;DHT22;19565;46.602;11.534;2023-05-14T04:10:12;12.10;99.90
33207;DHT22;19565;46.602;11.534;2023-05-14T04:12:41;12.00;99.90
33207;DHT22;19565;46.602;11.534;2023-05-14T04:15:10;12.00;99.90
33207;DHT22;19565;46.602;11.534;2023-05-14T04:17:38;12.00;99.90
33207;DHT22;19565;46.602;11.534;2023-05-14T04:20:07;12.10;99.90
33207;DHT22;19565;46.602;11.534;2023-05-14T04:22:35;12.10;99.90
33207;DHT22;19565;46.602;11.534;2023-05-14T04:25:03;12.10;99.90
33207;DHT22;19565;46.602;11.534;2023-05-14T04:27:32;12.10;99.90
33207;DHT22;19565;46.602;11.534;2023-05-14T04:30:02;12.10;99.90
33207;DHT22;19565;46.602;11.534;2023-05-14T04:32:30;12.00;99.90
33207;DHT22;19565;46.602;11.534;2023-05-14T04:34:58;12.00;99.90
33207;DHT22;19565;46.602;11.534;2023-05-14T04:37:26;12.10;99.90
33207;DHT22;19565;46.602;11.534;2023-05-14T04:39:54;12.00;99.90
33207;DHT22;19565;46.602;11.534;2023-05-14T04:42:22;12.00;99.90
33207;DHT22;19565;46.602;11.534;2023-05-14T04:44:51;11.90;99.90
33207;DHT22;19565;46.602;11.534;2023-05-14T04:47:20;11.90;99.90
33207;DHT22;19565;46.602;11.534;2023-05-14T04:49:48;12.00;99.90
33207;DHT22;19565;46.602;11.534;2023-05-14T04:52:16;12.00;99.90
33207;DHT22;19565;46.602;11.534;2023-05-14T04:54:44;12.10;99.90
33207;DHT22;19565;46.602;11.534;2023-05-14T04:57:13;12.00;99.90
33207;DHT22;19565;46.602;11.534;2023-05-14T04:59:41;11.90;99.90
33207;DHT22;19565;46.602;11.534;2023-05-14T05:02:09;12.00;99.90
33207;DHT22;19565;46.602;11.534;2023-05-14T05:04:38;11.90;99.90
33207;DHT22;19565;46.602;11.534;2023-05-14T05:07:06;11.90;99.90
33207;DHT22;19565;46.602;11.534;2023-05-14T05:09:34;11.90;99.90
33207;DHT22;19565;46.602;11.534;2023-05-14T05:12:02;11.70;99.90
33207;DHT22;19565;46.602;11.534;2023-05-14T05:14:30;11.70;99.90
33207;DHT22;19565;46.602;11.534;2023-05-14T05:16:58;11.80;99.90
33207;DHT22;19565;46.602;11.534;2023-05-14T05:19:27;11.80;99.90
33207;DHT22;19565;46.602;11.534;2023-05-14T05:22:11;11.80;99.90
33207;DHT22;19565;46.602;11.534;2023-05-14T05:24:39;11.90;99.90
33207;DHT22;19565;46.602;11.534;2023-05-14T05:27:07;12.00;99.90
33207;DHT22;19565;46.602;11.534;2023-05-14T05:29:35;12.00;99.90
33207;DHT22;19565;46.602;11.534;2023-05-14T05:32:04;11.80;99.90
33207;DHT22;19565;46.602;11.534;2023-05-14T05:34:33;11.90;99.90
33207;DHT22;19565;46.602;11.534;2023-05-14T05:37:01;11.90;99.90
33207;DHT22;19565;46.602;11.534;2023-05-14T05:39:32;11.90;99.90
33207;DHT22;19565;46.602;11.534;2023-05-14T05:42:01;12.10;99.90
33207;DHT22;19565;46.602;11.534;2023-05-14T05:44:29;12.10;99.90
33207;DHT22;19565;46.602;11.534;2023-05-14T05:46:57;12.20;99.90
33207;DHT22;19565;46.602;11.534;2023-05-14T05:49:25;12.30;99.90
33207;DHT22;19565;46.602;11.534;2023-05-14T05:51:53;12.30;99.90
33207;DHT22;19565;46.602;11.534;2023-05-14T05:54:22;12.40;99.90
33207;DHT22;19565;46.602;11.534;2023-05-14T05:56:52;12.40;99.90
33207;DHT22;19565;46.602;11.534;2023-05-14T05:59:19;12.30;99.90
33207;DHT22;19565;46.602;11.534;2023-05-14T06:01:47;12.20;99.90
33207;DHT22;19565;46.602;11.534;2023-05-14T06:04:16;12.10;99.90
33207;DHT22;19565;46.602;11.534;2023-05-14T06:06:44;12.10;99.90
33207;DHT22;19565;46.602;11.534;2023-05-14T06:09:12;12.00;99.90
33207;DHT22;19565;46.602;11.534;2023-05-14T06:11:40;12.10;99.90
33207;DHT22;19565;46.602;11.534;2023-05-14T06:14:09;12.20;99.90
33207;DHT22;19565;46.602;11.534;2023-05-14T06:16:37;12.30;99.90
33207;DHT22;19565;46.602;11.534;2023-05-14T06:19:05;12.40;99.90
33207;DHT22;19565;46.602;11.534;2023-05-14T06:21:34;12.50;99.90
33207;DHT22;19565;46.602;11.534;2023-05-14T06:24:02;12.60;99.90
33207;DHT22;19565;46.602;11.534;2023-05-14T06:26:30;12.60;99.90
33207;DHT22;19565;46.602;11.534;2023-05-14T06:28:58;12.70;99.90
33207;DHT22;19565;46.602;11.534;2023-05-14T06:31:30;12.80;99.90
33207;DHT22;19565;46.602;11.534;2023-05-14T06:33:58;12.80;99.90
33207;DHT22;19565;46.602;11.534;2023-05-14T06:36:26;12.90;99.90
33207;DHT22;19565;46.602;11.534;2023-05-14T06:38:54;12.90;99.90
33207;DHT22;19565;46.602;11.534;2023-05-14T06:41:22;13.00;99.90
33207;DHT22;19565;46.602;11.534;2023-05-14T06:43:50;13.00;99.90
33207;DHT22;19565;46.602;11.534;2023-05-14T06:46:18;13.00;99.90
33207;DHT22;19565;46.602;11.534;2023-05-14T06:48:47;13.00;99.90
33207;DHT22;19565;46.602;11.534;2023-05-14T06:51:15;13.10;99.90
33207;DHT22;19565;46.602;11.534;2023-05-14T06:53:43;13.20;99.90
33207;DHT22;19565;46.602;11.534;2023-05-14T06:56:12;13.20;99.90
33207;DHT22;19565;46.602;11.534;2023-05-14T06:58:40;13.20;99.90
33207;DHT22;19565;46.602;11.534;2023-05-14T07:01:08;13.30;99.90
33207;DHT22;19565;46.602;11.534;2023-05-14T07:03:36;13.30;99.90
33207;DHT22;19565;46.602;11.534;2023-05-14T07:06:06;13.40;99.90
33207;DHT22;19565;46.602;11.534;2023-05-14T07:08:34;13.40;99.90
33207;DHT22;19565;46.602;11.534;2023-05-14T07:11:02;13.40;99.90
33207;DHT22;19565;46.602;11.534;2023-05-14T07:13:30;13.50;99.90
33207;DHT22;19565;46.602;11.534;2023-05-14T07:15:58;13.50;99.90
33207;DHT22;19565;46.602;11.534;2023-05-14T07:18:26;13.60;99.90
33207;DHT22;19565;46.602;11.534;2023-05-14T07:20:54;13.60;99.90
33207;DHT22;19565;46.602;11.534;2023-05-14T07:23:23;13.70;99.90
33207;DHT22;19565;46.602;11.534;2023-05-14T07:25:51;13.70;99.90
33207;DHT22;19565;46.602;11.534;2023-05-14T07:28:19;13.70;99.90
33207;DHT22;19565;46.602;11.534;2023-05-14T07:30:47;13.70;99.90
33207;DHT22;19565;46.602;11.534;2023-05-14T07:33:15;13.80;99.90
33207;DHT22;19565;46.602;11.534;2023-05-14T07:35:43;13.80;99.90
33207;DHT22;19565;46.602;11.534;2023-05-14T07:38:11;13.90;99.90
33207;DHT22;19565;46.602;11.534;2023-05-14T07:40:41;13.90;99.90
33207;DHT22;19565;46.602;11.534;2023-05-14T07:43:09;13.90;99.90
33207;DHT22;19565;46.602;11.534;2023-05-14T07:45:37;13.90;99.90
33207;DHT22;19565;46.602;11.534;2023-05-14T07:48:05;13.90;99.90
33207;DHT22;19565;46.602;11.534;2023-05-14T07:50:34;14.00;99.90
33207;DHT22;19565;46.602;11.534;2023-05-14T07:53:02;14.00;99.90
33207;DHT22;19565;46.602;11.534;2023-05-14T07:55:30;14.00;99.90
33207;DHT22;19565;46.602;11.534;2023-05-14T07:58:00;14.10;99.90
33207;DHT22;19565;46.602;11.534;2023-05-14T08:00:28;14.20;99.90
33207;DHT22;19565;46.602;11.534;2023-05-14T08:02:56;14.20;99.90
33207;DHT22;19565;46.602;11.534;2023-05-14T08:05:24;14.30;99.90
33207;DHT22;19565;46.602;11.534;2023-05-14T08:07:52;14.30;99.90
33207;DHT22;19565;46.602;11.534;2023-05-14T08:10:20;14.30;99.90
33207;DHT22;19565;46.602;11.534;2023-05-14T08:12:49;14.50;99.90
33207;DHT22;19565;46.602;11.534;2023-05-14T08:15:18;14.60;99.90
33207;DHT22;19565;46.602;11.534;2023-05-14T08:17:46;14.70;99.90
33207;DHT22;19565;46.602;11.534;2023-05-14T08:20:14;14.80;99.90
33207;DHT22;19565;46.602;11.534;2023-05-14T08:22:42;14.90;99.90
33207;DHT22;19565;46.602;11.534;2023-05-14T08:25:10;15.00;99.90
33207;DHT22;19565;46.602;11.534;2023-05-14T08:27:38;15.00;99.20
33207;DHT22;19565;46.602;11.534;2023-05-14T08:30:07;15.10;99.00
33207;DHT22;19565;46.602;11.534;2023-05-14T08:32:36;15.10;98.20
33207;DHT22;19565;46.602;11.534;2023-05-14T08:35:05;15.10;98.40
33207;DHT22;19565;46.602;11.534;2023-05-14T08:37:34;15.10;98.70
33207;DHT22;19565;46.602;11.534;2023-05-14T08:40:02;15.10;97.70
33207;DHT22;19565;46.602;11.534;2023-05-14T08:42:30;15.10;97.40
33207;DHT22;19565;46.602;11.534;2023-05-14T08:45:00;15.20;97.40
33207;DHT22;19565;46.602;11.534;2023-05-14T08:47:29;15.20;97.80
33207;DHT22;19565;46.602;11.534;2023-05-14T08:50:01;15.30;96.60
33207;DHT22;19565;46.602;11.534;2023-05-14T08:52:30;15.30;96.60
33207;DHT22;19565;46.602;11.534;2023-05-14T08:55:03;15.30;96.60
33207;DHT22;19565;46.602;11.534;2023-05-14T08:57:32;15.30;95.30
33207;DHT22;19565;46.602;11.534;2023-05-14T09:00:00;15.40;95.90
33207;DHT22;19565;46.602;11.534;2023-05-14T09:02:32;15.40;95.70
33207;DHT22;19565;46.602;11.534;2023-05-14T09:05:02;15.50;96.10
33207;DHT22;19565;46.602;11.534;2023-05-14T09:07:30;15.50;96.20
33207;DHT22;19565;46.602;11.534;2023-05-14T09:09:59;15.60;95.10
33207;DHT22;19565;46.602;11.534;2023-05-14T09:12:27;15.60;95.00
33207;DHT22;19565;46.602;11.534;2023-05-14T09:14:55;15.70;95.80
33207;DHT22;19565;46.602;11.534;2023-05-14T09:17:25;15.80;95.90
33207;DHT22;19565;46.602;11.534;2023-05-14T09:19:53;15.80;94.30
33207;DHT22;19565;46.602;11.534;2023-05-14T09:22:23;15.80;94.80
33207;DHT22;19565;46.602;11.534;2023-05-14T09:25:02;15.80;94.70
33207;DHT22;19565;46.602;11.534;2023-05-14T09:27:31;15.80;94.20
33207;DHT22;19565;46.602;11.534;2023-05-14T09:30:08;15.90;94.70
33207;DHT22;19565;46.602;11.534;2023-05-14T09:32:37;15.90;94.10
33207;DHT22;19565;46.602;11.534;2023-05-14T09:35:13;15.90;93.30
33207;DHT22;19565;46.602;11.534;2023-05-14T09:37:46;15.90;93.30
33207;DHT22;19565;46.602;11.534;2023-05-14T09:40:15;15.90;93.10
33207;DHT22;19565;46.602;11.534;2023-05-14T09:42:44;15.90;93.50
33207;DHT22;19565;46.602;11.534;2023-05-14T09:45:12;15.90;93.20
33207;DHT22;19565;46.602;11.534;2023-05-14T09:47:40;15.90;93.30
33207;DHT22;19565;46.602;11.534;2023-05-14T09:50:09;15.90;93.30
33207;DHT22;19565;46.602;11.534;2023-05-14T09:52:37;15.90;93.50
33207;DHT22;19565;46.602;11.534;2023-05-14T09:55:08;15.90;93.60
33207;DHT22;19565;46.602;11.534;2023-05-14T09:57:36;16.00;93.10
33207;DHT22;19565;46.602;11.534;2023-05-14T10:00:05;15.90;93.00
33207;DHT22;19565;46.602;11.534;2023-05-14T10:02:35;16.00;93.50
33207;DHT22;19565;46.602;11.534;2023-05-14T10:05:05;16.00;93.10
33207;DHT22;19565;46.602;11.534;2023-05-14T10:07:38;16.00;93.30
33207;DHT22;19565;46.602;11.534;2023-05-14T10:10:14;16.00;93.40
33207;DHT22;19565;46.602;11.534;2023-05-14T10:12:47;16.00;93.40
33207;DHT22;19565;46.602;11.534;2023-05-14T10:15:20;16.00;93.30
33207;DHT22;19565;46.602;11.534;2023-05-14T10:17:55;16.00;93.50
33207;DHT22;19565;46.602;11.534;2023-05-14T10:20:24;16.10;93.30
33207;DHT22;19565;46.602;11.534;2023-05-14T10:22:53;16.20;92.70
33207;DHT22;19565;46.602;11.534;2023-05-14T10:25:23;16.10;92.10
33207;DHT22;19565;46.602;11.534;2023-05-14T10:27:52;16.20;92.60
33207;DHT22;19565;46.602;11.534;2023-05-14T10:30:21;16.20;91.50
33207;DHT22;19565;46.602;11.534;2023-05-14T10:33:05;16.10;91.80
33207;DHT22;19565;46.602;11.534;2023-05-14T10:35:54;16.10;92.00
33207;DHT22;19565;46.602;11.534;2023-05-14T10:38:24;16.10;92.30
33207;DHT22;19565;46.602;11.534;2023-05-14T10:40:56;16.20;91.70
33207;DHT22;19565;46.602;11.534;2023-05-14T10:43:26;16.20;92.50
33207;DHT22;19565;46.602;11.534;2023-05-14T10:45:56;16.20;91.90
33207;DHT22;19565;46.602;11.534;2023-05-14T10:48:24;16.20;91.60
33207;DHT22;19565;46.602;11.534;2023-05-14T10:50:53;16.20;91.70
33207;DHT22;19565;46.602;11.534;2023-05-14T10:53:30;16.30;91.50
33207;DHT22;19565;46.602;11.534;2023-05-14T10:56:02;16.30;90.70
33207;DHT22;19565;46.602;11.534;2023-05-14T10:58:34;16.30;91.00
33207;DHT22;19565;46.602;11.534;2023-05-14T11:01:03;16.30;90.30
33207;DHT22;19565;46.602;11.534;2023-05-14T11:03:39;16.30;90.10
33207;DHT22;19565;46.602;11.534;2023-05-14T11:06:08;16.30;90.50
33207;DHT22;19565;46.602;11.534;2023-05-14T11:08:37;16.30;90.70
33207;DHT22;19565;46.602;11.534;2023-05-14T11:11:08;16.40;90.80
33207;DHT22;19565;46.602;11.534;2023-05-14T11:13:37;16.40;91.10
33207;DHT22;19565;46.602;11.534;2023-05-14T11:16:05;16.40;91.60
33207;DHT22;19565;46.602;11.534;2023-05-14T11:18:52;16.40;91.70
33207;DHT22;19565;46.602;11.534;2023-05-14T11:21:27;16.50;91.20
33207;DHT22;19565;46.602;11.534;2023-05-14T11:23:55;16.50;91.20
33207;DHT22;19565;46.602;11.534;2023-05-14T11:26:25;16.50;91.10
33207;DHT22;19565;46.602;11.534;2023-05-14T11:28:53;16.60;92.10
33207;DHT22;19565;46.602;11.534;2023-05-14T11:31:21;16.60;91.60
33207;DHT22;19565;46.602;11.534;2023-05-14T11:33:51;16.70;91.70
33207;DHT22;19565;46.602;11.534;2023-05-14T11:36:19;16.60;90.20
33207;DHT22;19565;46.602;11.534;2023-05-14T11:38:47;16.60;91.00
33207;DHT22;19565;46.602;11.534;2023-05-14T11:41:17;16.60;91.00
33207;DHT22;19565;46.602;11.534;2023-05-14T11:43:48;16.60;90.60
33207;DHT22;19565;46.602;11.534;2023-05-14T11:46:16;16.60;90.30
33207;DHT22;19565;46.602;11.534;2023-05-14T11:48:45;16.60;90.50
33207;DHT22;19565;46.602;11.534;2023-05-14T11:51:13;16.60;90.30
33207;DHT22;19565;46.602;11.534;2023-05-14T11:53:41;16.70;90.20
33207;DHT22;19565;46.602;11.534;2023-05-14T11:56:09;16.70;90.10
33207;DHT22;19565;46.602;11.534;2023-05-14T11:58:37;16.70;89.20
33207;DHT22;19565;46.602;11.534;2023-05-14T12:01:12;16.70;90.00
33207;DHT22;19565;46.602;11.534;2023-05-14T12:03:40;16.70;90.40
33207;DHT22;19565;46.602;11.534;2023-05-14T12:06:08;16.80;89.50
33207;DHT22;19565;46.602;11.534;2023-05-14T12:08:36;16.80;90.40
33207;DHT22;19565;46.602;11.534;2023-05-14T12:11:04;16.90;90.20
33207;DHT22;19565;46.602;11.534;2023-05-14T12:13:33;16.90;90.70
33207;DHT22;19565;46.602;11.534;2023-05-14T12:16:03;16.90;90.80
33207;DHT22;19565;46.602;11.534;2023-05-14T12:18:33;16.90;90.60
33207;DHT22;19565;46.602;11.534;2023-05-14T12:21:01;16.90;90.40
33207;DHT22;19565;46.602;11.534;2023-05-14T12:23:31;16.90;90.90
33207;DHT22;19565;46.602;11.534;2023-05-14T12:26:02;17.00;90.50
33207;DHT22;19565;46.602;11.534;2023-05-14T12:28:32;17.00;90.30
33207;DHT22;19565;46.602;11.534;2023-05-14T12:31:04;16.90;89.70
33207;DHT22;19565;46.602;11.534;2023-05-14T12:33:34;16.90;90.90
33207;DHT22;19565;46.602;11.534;2023-05-14T12:36:02;16.90;91.30
33207;DHT22;19565;46.602;11.534;2023-05-14T12:38:47;16.80;92.10
33207;DHT22;19565;46.602;11.534;2023-05-14T12:41:15;16.90;92.30
33207;DHT22;19565;46.602;11.534;2023-05-14T12:43:44;16.90;92.40
33207;DHT22;19565;46.602;11.534;2023-05-14T12:46:14;16.90;91.90
33207;DHT22;19565;46.602;11.534;2023-05-14T12:48:44;16.90;92.20
33207;DHT22;19565;46.602;11.534;2023-05-14T12:51:12;16.90;92.00
33207;DHT22;19565;46.602;11.534;2023-05-14T12:53:40;16.90;91.80
33207;DHT22;19565;46.602;11.534;2023-05-14T12:56:08;17.00;91.20
33207;DHT22;19565;46.602;11.534;2023-05-14T12:58:36;17.00;91.20
33207;DHT22;19565;46.602;11.534;2023-05-14T13:01:05;17.00;92.00
33207;DHT22;19565;46.602;11.534;2023-05-14T13:03:33;17.10;92.30
33207;DHT22;19565;46.602;11.534;2023-05-14T13:06:03;17.00;91.70
33207;DHT22;19565;46.602;11.534;2023-05-14T13:08:31;17.00;91.60
33207;DHT22;19565;46.602;11.534;2023-05-14T13:10:59;17.00;91.00
33207;DHT22;19565;46.602;11.534;2023-05-14T13:13:27;17.10;91.30
33207;DHT22;19565;46.602;11.534;2023-05-14T13:15:55;17.10;90.60
33207;DHT22;19565;46.602;11.534;2023-05-14T13:18:23;17.10;90.40
33207;DHT22;19565;46.602;11.534;2023-05-14T13:20:53;17.10;90.50
33207;DHT22;19565;46.602;11.534;2023-05-14T13:23:22;17.20;90.30
33207;DHT22;19565;46.602;11.534;2023-05-14T13:25:50;17.20;90.60
33207;DHT22;19565;46.602;11.534;2023-05-14T13:28:18;17.30;90.80
33207;DHT22;19565;46.602;11.534;2023-05-14T13:31:03;17.30;90.80
33207;DHT22;19565;46.602;11.534;2023-05-14T13:33:34;17.40;90.30
33207;DHT22;19565;46.602;11.534;2023-05-14T13:36:02;17.30;90.50
33207;DHT22;19565;46.602;11.534;2023-05-14T13:38:32;17.30;91.40
33207;DHT22;19565;46.602;11.534;2023-05-14T13:41:00;17.30;91.70
33207;DHT22;19565;46.602;11.534;2023-05-14T13:43:29;17.40;91.90
33207;DHT22;19565;46.602;11.534;2023-05-14T13:45:58;17.30;92.00
33207;DHT22;19565;46.602;11.534;2023-05-14T13:48:27;17.30;92.90
33207;DHT22;19565;46.602;11.534;2023-05-14T13:50:56;17.30;94.10
33207;DHT22;19565;46.602;11.534;2023-05-14T13:53:24;17.20;94.40
33207;DHT22;19565;46.602;11.534;2023-05-14T13:55:54;17.20;95.00
33207;DHT22;19565;46.602;11.534;2023-05-14T13:58:24;17.20;95.90
33207;DHT22;19565;46.602;11.534;2023-05-14T14:00:53;17.10;96.30
33207;DHT22;19565;46.602;11.534;2023-05-14T14:03:22;17.10;96.70
33207;DHT22;19565;46.602;11.534;2023-05-14T14:05:50;17.00;97.10
33207;DHT22;19565;46.602;11.534;2023-05-14T14:08:18;16.90;97.80
33207;DHT22;19565;46.602;11.534;2023-05-14T14:10:50;16.90;98.20
33207;DHT22;19565;46.602;11.534;2023-05-14T14:13:21;16.80;98.40
33207;DHT22;19565;46.602;11.534;2023-05-14T14:15:50;16.70;99.00
33207;DHT22;19565;46.602;11.534;2023-05-14T14:18:18;16.70;99.40
33207;DHT22;19565;46.602;11.534;2023-05-14T14:20:46;16.70;99.80
33207;DHT22;19565;46.602;11.534;2023-05-14T14:23:14;16.60;99.60
33207;DHT22;19565;46.602;11.534;2023-05-14T14:25:42;16.60;99.70
33207;DHT22;19565;46.602;11.534;2023-05-14T14:28:10;16.50;99.90
33207;DHT22;19565;46.602;11.534;2023-05-14T14:30:40;16.40;99.90
33207;DHT22;19565;46.602;11.534;2023-05-14T14:33:09;16.30;99.90
33207;DHT22;19565;46.602;11.534;2023-05-14T14:35:38;16.30;99.90
33207;DHT22;19565;46.602;11.534;2023-05-14T14:38:06;16.20;99.90
33207;DHT22;19565;46.602;11.534;2023-05-14T14:40:34;16.10;98.10
33207;DHT22;19565;46.602;11.534;2023-05-14T14:43:04;16.20;98.30
33207;DHT22;19565;46.602;11.534;2023-05-14T14:45:33;16.20;99.90
33207;DHT22;19565;46.602;11.534;2023-05-14T14:48:27;16.20;99.90
33207;DHT22;19565;46.602;11.534;2023-05-14T14:50:57;16.20;99.90
33207;DHT22;19565;46.602;11.534;2023-05-14T14:53:25;16.30;99.90
33207;DHT22;19565;46.602;11.534;2023-05-14T14:55:54;16.30;99.90
33207;DHT22;19565;46.602;11.534;2023-05-14T14:58:22;16.30;99.90
33207;DHT22;19565;46.602;11.534;2023-05-14T15:00:51;16.30;99.90
33207;DHT22;19565;46.602;11.534;2023-05-14T15:03:20;16.20;99.90
33207;DHT22;19565;46.602;11.534;2023-05-14T15:05:50;16.20;99.90
33207;DHT22;19565;46.602;11.534;2023-05-14T15:08:23;16.10;99.90
33207;DHT22;19565;46.602;11.534;2023-05-14T15:10:51;16.10;99.90
33207;DHT22;19565;46.602;11.534;2023-05-14T15:13:19;16.20;99.90
33207;DHT22;19565;46.602;11.534;2023-05-14T15:15:49;16.10;99.90
33207;DHT22;19565;46.602;11.534;2023-05-14T15:18:17;16.10;99.90
33207;DHT22;19565;46.602;11.534;2023-05-14T15:20:45;16.00;99.90
33207;DHT22;19565;46.602;11.534;2023-05-14T15:23:15;16.00;99.90
33207;DHT22;19565;46.602;11.534;2023-05-14T15:25:43;16.00;99.90
33207;DHT22;19565;46.602;11.534;2023-05-14T15:28:11;16.00;99.90